map of ADB home
ADB - Airport
Location
City:  Izmir, Izmir, Turkey
Name:Adnan Menderes
Old (Alt.):Cumaovasi
ICAO:LTBJ
IATA:ADB

Details
Type:Airport (Aerodrome, Airfield)
Use:Public/Civil
Latitude:3817'33"N (38.292392)
Longitude:2709'25"E (27.156953)
Datum:WGS 1984
Elevation:412 ft (126 m)
Variation:5.00E (WMM2015 magnetic declination)
0.10 annual change
Runways:2
Longest:10630 × 147 ft (3240 × 45 m), paved

Time
Time Zone:UTC+3
Local Time:

Weather
METAR:LTBJ 220320Z 34003KT 300V030 6000 BKN035 08/07 Q1016 BECMG 4000 BR RMK RWY16 02003KT 320V070
TAF:LTBJ 211040Z 2112/2212 VRB02KT 9999 SCT030 BKN100
BECMG 2112/2115 36012KT
TEMPO 2112/2116 -SHRA
BECMG 2118/2121 VRB02KT CAVOK PROB40 2120/2124 4000 BR
BECMG 2200/2203 SCT030 PROB40 2202/2206 4000 BR

Related Locations
Nearby:
Farthest:RVV: 11393 mi / 18335 km
Raivavae, Tubuai Islands, Austral Islands, PF

Find:

   beyond  
but within

Other Information
Maps:
NOTAMs:
Links:
Sources:

  
  • flag of Turkey
  

Sectional Chart

Flight Planning
at skyvector.com

Satellite Image

Google Maps Satellite view

 

Copyright © 2004-2019 Karl L. Swartz. All rights reserved.
The Great Circle Mapper name and logo are trademarks of the Great Circle Mapper.
All other trademarks mentioned herein belong to their respective owners.
Please see credits for attibutions and further copyright information.

  Follow gcmap on Facebook Follow gcmap on Twitter Follow gcmap on Google+ GCmap on LinkedIn

hCard Microformat

Geo Microformat